createdAt,value
2023-02-22T00:02:27.172Z,1.00
2023-02-22T00:04:56.284Z,1.00
2023-02-22T00:07:25.328Z,1.00
2023-02-22T00:09:54.730Z,1.00
2023-02-22T00:12:23.395Z,1.00
2023-02-22T00:14:53.197Z,1.00
2023-02-22T00:17:23.391Z,1.00
2023-02-22T00:19:52.090Z,1.00
2023-02-22T00:22:20.762Z,1.00
2023-02-22T00:24:50.563Z,1.00
2023-02-22T00:27:19.380Z,1.00
2023-02-22T00:29:48.341Z,1.00
2023-02-22T00:32:17.454Z,1.00
2023-02-22T00:34:48.034Z,1.00
2023-02-22T00:37:16.592Z,1.00
2023-02-22T00:39:48.955Z,1.00
2023-02-22T00:42:19.229Z,1.00
2023-02-22T00:44:48.360Z,1.00
2023-02-22T00:47:17.249Z,1.00
2023-02-22T00:49:48.473Z,1.00
2023-02-22T00:52:17.660Z,1.00
2023-02-22T00:54:46.191Z,1.00
2023-02-22T00:57:16.593Z,1.00
2023-02-22T00:59:47.721Z,1.00
2023-02-22T01:02:16.433Z,1.00
2023-02-22T01:04:46.632Z,1.00
2023-02-22T01:07:16.821Z,1.00
2023-02-22T01:09:45.243Z,1.00
2023-02-22T01:12:14.216Z,1.00
2023-02-22T01:14:43.337Z,1.00
2023-02-22T01:17:13.429Z,99.90
2023-02-22T01:19:42.870Z,99.90
2023-02-22T01:22:12.666Z,99.90
2023-02-22T01:24:41.525Z,99.90
2023-02-22T01:27:11.280Z,99.90
2023-02-22T01:29:40.728Z,99.90
2023-02-22T01:32:09.679Z,99.90
2023-02-22T01:34:38.283Z,99.90
2023-02-22T01:37:07.841Z,99.90
2023-02-22T01:39:38.162Z,99.90
2023-02-22T01:42:10.472Z,99.90
2023-02-22T01:44:41.885Z,99.90
2023-02-22T01:47:11.034Z,99.90
2023-02-22T01:49:43.755Z,99.90
2023-02-22T01:52:17.078Z,99.90
2023-02-22T01:54:51.573Z,99.90
2023-02-22T01:57:31.153Z,99.90
2023-02-22T02:00:10.265Z,99.90
2023-02-22T02:02:46.776Z,99.90
2023-02-22T02:05:15.803Z,99.90
2023-02-22T02:07:46.930Z,99.90
2023-02-22T02:10:17.043Z,99.90
2023-02-22T02:12:49.015Z,99.90
2023-02-22T02:15:23.688Z,99.90
2023-02-22T02:17:55.401Z,99.90
2023-02-22T02:20:29.343Z,99.90
2023-02-22T02:23:02.362Z,99.90
2023-02-22T02:25:54.216Z,99.90
2023-02-22T02:28:54.923Z,99.90
2023-02-22T02:31:56.825Z,99.90
2023-02-22T02:34:33.695Z,99.90
2023-02-22T02:37:11.130Z,99.90
2023-02-22T02:39:45.112Z,99.90
2023-02-22T02:42:19.794Z,99.90
2023-02-22T02:44:55.642Z,99.90
2023-02-22T02:47:30.170Z,99.90
2023-02-22T02:50:09.396Z,99.90
2023-02-22T02:52:40.986Z,99.90
2023-02-22T02:55:11.799Z,99.90
2023-02-22T02:57:43.264Z,99.90
2023-02-22T03:00:22.551Z,99.90
2023-02-22T03:03:19.069Z,99.90
2023-02-22T03:06:08.951Z,99.90
2023-02-22T03:08:43.998Z,99.90
2023-02-22T03:11:18.521Z,99.90
2023-02-22T03:13:56.767Z,99.90
2023-02-22T03:16:35.639Z,99.90
2023-02-22T03:19:12.931Z,99.90
2023-02-22T03:21:48.785Z,99.90
2023-02-22T03:24:23.382Z,99.90
2023-02-22T03:26:59.982Z,99.90
2023-02-22T03:29:35.797Z,99.90
2023-02-22T03:32:10.783Z,99.90
2023-02-22T03:34:47.657Z,99.90
2023-02-22T03:37:22.371Z,99.90
2023-02-22T03:39:55.497Z,99.90
2023-02-22T03:42:30.330Z,99.90
2023-02-22T03:45:01.846Z,99.90
2023-02-22T03:47:35.712Z,99.90
2023-02-22T03:50:13.049Z,99.90
2023-02-22T03:52:47.770Z,99.90
2023-02-22T03:55:25.493Z,99.90
2023-02-22T03:57:59.260Z,99.90
2023-02-22T04:00:34.469Z,99.90
2023-02-22T04:03:04.272Z,99.90
2023-02-22T04:05:32.806Z,1.00
2023-02-22T04:08:03.359Z,1.00
2023-02-22T04:10:33.716Z,99.90
2023-02-22T04:13:04.066Z,1.00
2023-02-22T04:15:32.658Z,1.00
2023-02-22T04:18:06.122Z,1.00
2023-02-22T04:20:35.463Z,1.00
2023-02-22T04:23:15.038Z,1.00
2023-02-22T04:25:43.694Z,1.00
2023-02-22T04:28:18.790Z,1.00
2023-02-22T04:31:11.729Z,1.00
2023-02-22T04:33:40.777Z,1.00
2023-02-22T04:36:13.560Z,1.00
2023-02-22T04:38:43.174Z,1.00
2023-02-22T04:41:11.436Z,1.00
2023-02-22T04:43:39.730Z,1.00
2023-02-22T04:46:20.134Z,1.00
2023-02-22T04:48:49.064Z,1.00
2023-02-22T04:51:20.360Z,1.00
2023-02-22T04:54:11.406Z,1.00
2023-02-22T04:56:43.571Z,1.00
2023-02-22T04:59:12.743Z,1.00
2023-02-22T05:01:45.162Z,1.00
2023-02-22T05:04:13.646Z,1.00
2023-02-22T05:06:42.753Z,1.00
2023-02-22T05:09:12.911Z,1.00
2023-02-22T05:11:41.688Z,1.00
2023-02-22T05:14:09.843Z,1.00
2023-02-22T05:16:38.112Z,1.00
2023-02-22T05:19:06.545Z,1.00
2023-02-22T05:21:34.649Z,1.00
2023-02-22T05:24:02.813Z,1.00
2023-02-22T05:26:32.163Z,1.00
2023-02-22T05:29:01.116Z,1.00
2023-02-22T05:31:29.987Z,1.00
2023-02-22T05:33:58.926Z,1.00
2023-02-22T05:36:28.092Z,1.00
2023-02-22T05:38:56.999Z,1.00
2023-02-22T05:41:25.545Z,1.00
2023-02-22T05:43:55.720Z,1.00
2023-02-22T05:46:24.333Z,1.00
2023-02-22T05:48:52.855Z,1.00
2023-02-22T05:51:21.512Z,1.00
2023-02-22T05:53:52.773Z,1.00
2023-02-22T05:56:26.000Z,1.00
2023-02-22T05:58:57.487Z,1.00
2023-02-22T06:01:27.429Z,1.00
2023-02-22T06:03:56.354Z,1.00
2023-02-22T06:06:24.731Z,1.00
2023-02-22T06:08:53.639Z,1.00
2023-02-22T06:11:22.438Z,1.00
2023-02-22T06:13:52.562Z,1.00
2023-02-22T06:16:24.154Z,1.00
2023-02-22T06:18:53.002Z,1.00
2023-02-22T06:21:22.050Z,1.00
2023-02-22T06:23:50.677Z,1.00
2023-02-22T06:26:19.778Z,1.00
2023-02-22T06:28:49.075Z,1.00
2023-02-22T06:31:18.278Z,1.00
2023-02-22T06:33:49.001Z,1.00
2023-02-22T06:36:17.745Z,1.00
2023-02-22T06:38:46.267Z,1.00
2023-02-22T06:41:17.672Z,1.00
2023-02-22T06:43:49.411Z,1.00
2023-02-22T06:46:19.584Z,1.00
2023-02-22T06:48:51.851Z,1.00
2023-02-22T06:51:22.424Z,1.00
2023-02-22T06:53:51.435Z,1.00
2023-02-22T06:56:19.899Z,1.00
2023-02-22T06:58:49.650Z,1.00
2023-02-22T07:01:18.686Z,1.00
2023-02-22T07:03:50.695Z,1.00
2023-02-22T07:06:19.180Z,1.00
2023-02-22T07:08:47.462Z,1.00
2023-02-22T07:11:16.090Z,1.00
2023-02-22T07:13:44.829Z,1.00
2023-02-22T07:16:13.504Z,1.00
2023-02-22T07:18:41.808Z,1.00
2023-02-22T07:21:11.821Z,1.00
2023-02-22T07:23:41.361Z,1.00
2023-02-22T07:26:09.872Z,1.00
2023-02-22T07:28:40.095Z,1.00
2023-02-22T07:31:08.746Z,1.00
2023-02-22T07:33:37.056Z,1.00
2023-02-22T07:36:06.804Z,1.00
2023-02-22T07:38:37.629Z,1.00
2023-02-22T07:41:06.331Z,99.90
2023-02-22T07:43:35.923Z,99.90
2023-02-22T07:46:06.063Z,99.90
2023-02-22T07:48:35.245Z,99.90
2023-02-22T07:51:04.066Z,99.90
2023-02-22T07:53:34.774Z,99.90
2023-02-22T07:56:09.125Z,99.90
2023-02-22T07:58:38.330Z,99.90
2023-02-22T08:01:07.112Z,99.90
2023-02-22T08:03:38.537Z,99.90
2023-02-22T08:06:09.637Z,99.90
2023-02-22T08:08:38.225Z,99.90
2023-02-22T08:11:08.777Z,99.90
2023-02-22T08:13:38.960Z,99.90
2023-02-22T08:16:07.856Z,99.90
2023-02-22T08:18:38.411Z,99.90
2023-02-22T08:21:07.045Z,99.90
2023-02-22T08:23:35.635Z,95.70
2023-02-22T08:26:15.810Z,85.90
2023-02-22T08:28:46.271Z,71.70
2023-02-22T08:31:14.796Z,53.00
2023-02-22T08:33:43.434Z,42.20
2023-02-22T08:36:13.771Z,22.00
2023-02-22T08:38:42.894Z,7.20
2023-02-22T08:41:13.513Z,1.00
2023-02-22T08:43:42.136Z,1.00
2023-02-22T08:46:11.170Z,1.00
2023-02-22T08:48:39.787Z,1.00
2023-02-22T08:51:08.125Z,1.00
2023-02-22T08:53:37.079Z,1.00
2023-02-22T08:56:05.869Z,1.00
2023-02-22T08:58:36.037Z,1.00
2023-02-22T09:01:05.406Z,1.00
2023-02-22T09:03:34.036Z,1.00
2023-02-22T09:06:03.008Z,1.00
2023-02-22T09:08:31.346Z,1.00
2023-02-22T09:10:59.969Z,1.00
2023-02-22T09:13:28.496Z,1.00
2023-02-22T09:15:58.202Z,1.00
2023-02-22T09:18:42.395Z,1.00
2023-02-22T09:21:12.552Z,1.00
2023-02-22T09:23:41.612Z,1.00
2023-02-22T09:26:10.503Z,1.00
2023-02-22T09:28:39.023Z,1.00
2023-02-22T09:31:10.069Z,1.00
2023-02-22T09:33:38.840Z,1.00
2023-02-22T09:36:08.450Z,1.00
2023-02-22T09:38:37.646Z,1.00
2023-02-22T09:41:14.260Z,1.00
2023-02-22T09:43:50.948Z,1.00
2023-02-22T09:46:33.290Z,1.00
2023-02-22T09:49:06.418Z,1.00
2023-02-22T09:51:41.474Z,1.00
2023-02-22T09:54:17.675Z,1.00
2023-02-22T09:56:48.086Z,1.00
2023-02-22T09:59:23.796Z,1.00
2023-02-22T10:02:01.454Z,1.00
2023-02-22T10:04:42.005Z,1.00
2023-02-22T10:07:19.815Z,1.00
2023-02-22T10:09:51.040Z,1.00
2023-02-22T10:12:30.004Z,1.00
2023-02-22T10:15:41.237Z,1.00
2023-02-22T10:18:55.456Z,1.00
2023-02-22T10:21:49.257Z,1.00
2023-02-22T10:24:38.404Z,1.00
2023-02-22T10:27:08.858Z,1.00
2023-02-22T10:29:41.850Z,1.00
2023-02-22T10:32:16.586Z,1.00
2023-02-22T10:34:49.737Z,1.00
2023-02-22T10:37:25.640Z,1.00
2023-02-22T10:40:01.474Z,1.00
2023-02-22T10:42:31.764Z,1.00
2023-02-22T10:45:00.439Z,1.00
2023-02-22T10:47:29.120Z,1.00
2023-02-22T10:50:01.959Z,1.00
2023-02-22T10:52:33.993Z,1.00
2023-02-22T10:55:15.425Z,1.00
2023-02-22T10:57:49.915Z,1.00
2023-02-22T11:00:21.164Z,1.00
2023-02-22T11:02:55.275Z,1.00
2023-02-22T11:05:36.885Z,1.00
2023-02-22T11:08:26.182Z,1.00
2023-02-22T11:10:56.931Z,1.00
2023-02-22T11:13:28.205Z,1.00
2023-02-22T11:15:59.278Z,1.00
2023-02-22T11:18:29.817Z,1.00
2023-02-22T11:21:07.641Z,1.00
2023-02-22T11:23:37.045Z,1.00
2023-02-22T11:26:09.994Z,1.00
2023-02-22T11:28:49.104Z,1.00
2023-02-22T11:31:20.143Z,1.00
2023-02-22T11:33:53.675Z,1.00
2023-02-22T11:36:37.401Z,1.00
2023-02-22T11:39:11.527Z,1.00
2023-02-22T11:41:39.724Z,1.00
2023-02-22T11:44:23.574Z,1.00
2023-02-22T11:46:55.558Z,1.00
2023-02-22T11:49:26.413Z,1.00
2023-02-22T11:52:18.761Z,1.00
2023-02-22T11:55:02.823Z,1.00
2023-02-22T11:57:46.501Z,1.00
2023-02-22T12:00:25.260Z,1.00
2023-02-22T12:03:15.245Z,1.00
2023-02-22T12:06:00.530Z,1.00
2023-02-22T12:08:38.277Z,1.00
2023-02-22T12:11:13.804Z,1.00
2023-02-22T12:14:07.568Z,1.00
2023-02-22T12:16:45.442Z,1.00
2023-02-22T12:19:26.599Z,1.00
2023-02-22T12:21:57.627Z,1.00
2023-02-22T12:24:33.344Z,1.00
2023-02-22T12:27:06.728Z,1.00
2023-02-22T12:29:40.358Z,1.00
2023-02-22T12:32:14.075Z,1.00
2023-02-22T12:34:47.155Z,1.00
2023-02-22T12:37:21.212Z,1.00
2023-02-22T12:40:01.106Z,1.00
2023-02-22T12:42:39.534Z,1.00
2023-02-22T12:45:16.789Z,1.00
2023-02-22T12:47:54.118Z,1.00
2023-02-22T12:50:24.483Z,1.00
2023-02-22T12:52:57.826Z,1.00
2023-02-22T12:55:34.145Z,1.00
2023-02-22T12:58:09.849Z,1.00
2023-02-22T13:00:45.875Z,1.00
2023-02-22T13:03:30.326Z,1.00
2023-02-22T13:06:10.296Z,1.00
2023-02-22T13:08:47.153Z,1.00
2023-02-22T13:11:23.491Z,1.00
2023-02-22T13:14:07.805Z,1.00
2023-02-22T13:16:44.050Z,1.00
2023-02-22T13:19:27.855Z,1.00
2023-02-22T13:22:02.394Z,1.00
2023-02-22T13:24:37.676Z,1.00
2023-02-22T13:27:14.666Z,1.00
2023-02-22T13:29:45.829Z,1.00
2023-02-22T13:32:33.405Z,1.00
2023-02-22T13:35:20.595Z,1.00
2023-02-22T13:38:05.549Z,1.00
2023-02-22T13:41:08.798Z,1.00
2023-02-22T13:44:00.432Z,1.00
2023-02-22T13:46:47.801Z,1.00
2023-02-22T13:49:36.377Z,1.00
2023-02-22T13:52:09.408Z,1.00
2023-02-22T13:54:42.992Z,1.00
2023-02-22T13:57:23.142Z,1.00
2023-02-22T14:00:39.350Z,1.00
2023-02-22T14:03:30.267Z,1.00
2023-02-22T14:08:46.093Z,1.00
2023-02-22T14:11:56.877Z,1.00
2023-02-22T14:14:25.897Z,1.00
2023-02-22T14:17:31.214Z,1.00
2023-02-22T14:20:20.623Z,1.00
2023-02-22T14:22:54.201Z,1.00
2023-02-22T14:25:38.973Z,1.00
2023-02-22T14:28:09.396Z,1.00
2023-02-22T14:30:41.282Z,1.00
2023-02-22T14:33:47.403Z,1.00
2023-02-22T14:36:18.262Z,1.00
2023-02-22T14:38:50.363Z,1.00
2023-02-22T14:41:19.465Z,1.00
2023-02-22T14:43:53.064Z,1.00
2023-02-22T14:46:25.416Z,1.00
2023-02-22T14:48:59.483Z,1.00
2023-02-22T14:51:41.574Z,1.00
2023-02-22T14:54:16.855Z,1.00
2023-02-22T14:57:12.122Z,1.00
2023-02-22T15:00:03.076Z,1.00
2023-02-22T15:02:41.580Z,1.00
2023-02-22T15:05:15.440Z,1.00
2023-02-22T15:07:55.135Z,1.00
2023-02-22T15:10:30.203Z,1.00
2023-02-22T15:13:11.051Z,1.00
2023-02-22T15:15:43.916Z,1.00
2023-02-22T15:18:30.224Z,1.00
2023-02-22T15:21:15.610Z,1.00
2023-02-22T15:23:49.014Z,1.00
2023-02-22T15:26:19.731Z,1.00
2023-02-22T15:28:55.690Z,1.00
2023-02-22T15:31:34.373Z,1.00
2023-02-22T15:34:24.368Z,1.00
2023-02-22T15:36:56.221Z,1.00
2023-02-22T15:39:29.544Z,1.00
2023-02-22T15:42:11.346Z,1.00
2023-02-22T15:44:44.912Z,1.00
2023-02-22T15:47:21.119Z,1.00
2023-02-22T15:50:18.634Z,1.00
2023-02-22T15:52:58.160Z,1.00
2023-02-22T15:55:33.372Z,1.00
2023-02-22T15:58:09.245Z,1.00
2023-02-22T16:00:43.820Z,1.00
2023-02-22T16:03:16.673Z,1.00
2023-02-22T16:05:47.246Z,1.00
2023-02-22T16:08:19.286Z,1.00
2023-02-22T16:10:54.806Z,1.00
2023-02-22T16:13:32.144Z,1.00
2023-02-22T16:16:03.053Z,1.00
2023-02-22T16:18:36.320Z,1.00
2023-02-22T16:21:11.795Z,1.00
2023-02-22T16:23:48.679Z,1.00
2023-02-22T16:26:28.642Z,1.00
2023-02-22T16:28:59.720Z,1.00
2023-02-22T16:31:33.590Z,1.00
2023-02-22T16:34:03.500Z,1.00
2023-02-22T16:36:40.578Z,1.00
2023-02-22T16:39:12.471Z,1.00
2023-02-22T16:41:42.723Z,1.00
2023-02-22T16:44:12.846Z,1.00
2023-02-22T16:46:41.882Z,1.00
2023-02-22T16:49:11.375Z,1.00
2023-02-22T16:51:42.905Z,1.00
2023-02-22T16:54:13.731Z,1.00
2023-02-22T16:56:43.318Z,1.00
2023-02-22T16:59:15.733Z,1.00
2023-02-22T17:01:44.194Z,1.00
2023-02-22T17:04:21.009Z,1.00
2023-02-22T17:06:49.880Z,1.00
2023-02-22T17:09:20.204Z,1.00
2023-02-22T17:11:51.609Z,1.00
2023-02-22T17:14:24.751Z,1.00
2023-02-22T17:16:53.407Z,3.10
2023-02-22T17:19:26.502Z,14.70
2023-02-22T17:21:54.935Z,28.60
2023-02-22T17:24:29.253Z,42.00
2023-02-22T17:26:59.769Z,57.90
2023-02-22T17:29:28.919Z,68.10
2023-02-22T17:31:57.639Z,78.90
2023-02-22T17:34:25.983Z,90.00
2023-02-22T17:36:54.056Z,99.90
2023-02-22T17:39:22.322Z,99.90
2023-02-22T17:41:57.482Z,99.90
2023-02-22T17:44:27.393Z,99.90
2023-02-22T17:46:55.663Z,99.90
2023-02-22T17:49:24.102Z,99.90
2023-02-22T17:51:53.205Z,99.90
2023-02-22T17:54:21.521Z,99.90
2023-02-22T17:56:49.896Z,99.90
2023-02-22T17:59:18.208Z,99.90
2023-02-22T18:01:48.226Z,99.90
2023-02-22T18:04:16.604Z,99.90
2023-02-22T18:06:45.234Z,99.90
2023-02-22T18:09:14.566Z,99.90
2023-02-22T18:11:42.748Z,99.90
2023-02-22T18:14:12.277Z,99.90
2023-02-22T18:16:41.522Z,99.90
2023-02-22T18:19:10.939Z,99.90
2023-02-22T18:21:42.198Z,99.90
2023-02-22T18:24:10.296Z,99.90
2023-02-22T18:26:39.113Z,99.90
2023-02-22T18:29:07.629Z,99.90
2023-02-22T18:31:35.899Z,99.90
2023-02-22T18:34:04.304Z,99.90
2023-02-22T18:36:33.864Z,99.90
2023-02-22T18:39:03.282Z,99.90
2023-02-22T18:41:31.455Z,99.90
2023-02-22T18:44:00.899Z,99.90
2023-02-22T18:46:36.886Z,99.90
2023-02-22T18:49:06.629Z,99.90
2023-02-22T18:51:35.980Z,99.90
2023-02-22T18:54:04.126Z,99.90
2023-02-22T18:56:33.947Z,99.90
2023-02-22T18:59:03.667Z,99.90
2023-02-22T19:01:35.593Z,99.90
2023-02-22T19:04:03.721Z,99.90
2023-02-22T19:06:34.943Z,99.90
2023-02-22T19:09:08.464Z,99.90
2023-02-22T19:11:37.812Z,99.90
2023-02-22T19:14:05.876Z,99.90
2023-02-22T19:16:34.103Z,99.90
2023-02-22T19:19:02.170Z,99.90
2023-02-22T19:21:31.540Z,99.90
2023-02-22T19:24:02.634Z,99.90
2023-02-22T19:26:32.079Z,99.90
2023-02-22T19:29:04.660Z,99.90
2023-02-22T19:31:34.443Z,99.90
2023-02-22T19:34:04.080Z,99.90
2023-02-22T19:36:33.044Z,99.90
2023-02-22T19:39:02.204Z,99.90
2023-02-22T19:41:32.491Z,99.90
2023-02-22T19:44:02.216Z,99.90
2023-02-22T19:46:30.330Z,99.90
2023-02-22T19:48:58.782Z,99.90
2023-02-22T19:51:28.893Z,99.90
2023-02-22T19:53:59.222Z,99.90
2023-02-22T19:56:28.382Z,99.90
2023-02-22T19:59:01.326Z,99.90
2023-02-22T20:01:32.819Z,99.90
2023-02-22T20:04:03.998Z,99.90
2023-02-22T20:06:34.740Z,99.90
2023-02-22T20:09:03.624Z,79.00
2023-02-22T20:11:31.671Z,60.60
2023-02-22T20:14:01.955Z,54.80
2023-02-22T20:16:30.776Z,53.50
2023-02-22T20:18:59.002Z,51.40
2023-02-22T20:21:30.718Z,50.40
2023-02-22T20:23:59.264Z,52.00
2023-02-22T20:26:29.430Z,53.60
2023-02-22T20:28:57.553Z,47.80
2023-02-22T20:31:27.034Z,48.60
2023-02-22T20:33:56.943Z,53.80
2023-02-22T20:36:26.194Z,54.20
2023-02-22T20:38:54.986Z,56.80
2023-02-22T20:41:25.401Z,58.20
2023-02-22T20:43:55.236Z,61.60
2023-02-22T20:46:24.652Z,60.50
2023-02-22T20:48:56.828Z,60.20
2023-02-22T20:51:25.844Z,66.40
2023-02-22T20:53:54.211Z,69.90
2023-02-22T20:56:24.170Z,73.10
2023-02-22T20:58:52.245Z,81.60
2023-02-22T21:01:22.458Z,86.40
2023-02-22T21:03:51.270Z,91.80
2023-02-22T21:06:22.859Z,91.30
2023-02-22T21:08:54.747Z,92.00
2023-02-22T21:11:23.934Z,94.10
2023-02-22T21:13:52.381Z,97.60
2023-02-22T21:16:22.482Z,99.90
2023-02-22T21:18:51.624Z,99.90
2023-02-22T21:21:21.627Z,99.90
2023-02-22T21:23:51.219Z,99.90
2023-02-22T21:26:23.372Z,99.90
2023-02-22T21:28:52.117Z,99.90
2023-02-22T21:31:21.745Z,99.90
2023-02-22T21:33:51.160Z,99.90
2023-02-22T21:36:21.050Z,99.90
2023-02-22T21:38:53.119Z,99.90
2023-02-22T21:41:23.570Z,99.90
2023-02-22T21:43:52.639Z,99.90
2023-02-22T21:46:22.611Z,99.90
2023-02-22T21:48:51.200Z,99.90
2023-02-22T21:51:22.087Z,99.90
2023-02-22T21:53:52.462Z,99.90
2023-02-22T21:56:24.238Z,99.90
2023-02-22T21:58:59.155Z,99.90
2023-02-22T22:01:28.375Z,99.90
2023-02-22T22:03:59.462Z,99.90
2023-02-22T22:06:31.221Z,99.90
2023-02-22T22:09:00.832Z,99.90
2023-02-22T22:11:30.568Z,99.90
2023-02-22T22:14:00.333Z,99.90
2023-02-22T22:16:30.250Z,99.90
2023-02-22T22:18:58.732Z,99.90
2023-02-22T22:21:28.660Z,99.90
2023-02-22T22:23:57.399Z,99.90
2023-02-22T22:26:27.321Z,99.90
2023-02-22T22:28:59.008Z,99.90
2023-02-22T22:31:27.927Z,99.90
2023-02-22T22:33:56.860Z,99.90
2023-02-22T22:36:26.549Z,99.90
2023-02-22T22:38:57.561Z,99.90
2023-02-22T22:41:27.944Z,99.90
2023-02-22T22:43:56.407Z,99.90
2023-02-22T22:46:24.632Z,99.90
2023-02-22T22:48:52.587Z,99.90
2023-02-22T22:52:11.482Z,99.90
2023-02-22T22:55:56.197Z,99.90
2023-02-22T23:58:52.045Z,99.90
